createdAt,value
2023-04-08T00:00:20.583Z,3.23
2023-04-08T00:01:20.598Z,3.19
2023-04-08T00:02:20.691Z,3.13
2023-04-08T00:03:20.650Z,3.16
2023-04-08T00:04:20.623Z,3.19
2023-04-08T00:05:20.542Z,3.21
2023-04-08T00:06:20.571Z,3.14
2023-04-08T00:07:20.523Z,3.13
2023-04-08T00:08:20.539Z,3.16
2023-04-08T00:09:20.513Z,3.22
2023-04-08T00:10:20.509Z,3.19
2023-04-08T00:11:20.512Z,3.25
2023-04-08T00:12:20.487Z,3.25
2023-04-08T00:13:20.479Z,3.22
2023-04-08T00:14:20.478Z,3.14
2023-04-08T00:15:20.461Z,3.19
2023-04-08T00:16:20.544Z,3.21
2023-04-08T00:17:20.452Z,3.19
2023-04-08T00:18:20.444Z,3.21
2023-04-08T00:19:20.426Z,3.23
2023-04-08T00:20:20.424Z,3.19
2023-04-08T00:21:20.442Z,3.19
2023-04-08T00:22:20.431Z,3.14
2023-04-08T00:23:20.408Z,3.13
2023-04-08T00:24:20.399Z,3.14
2023-04-08T00:25:21.121Z,3.10
2023-04-08T00:26:20.425Z,3.08
2023-04-08T00:27:20.367Z,3.07
2023-04-08T00:28:20.358Z,3.07
2023-04-08T00:29:20.360Z,3.05
2023-04-08T00:30:20.370Z,3.07
2023-04-08T00:31:20.432Z,3.07
2023-04-08T00:32:20.354Z,2.98
2023-04-08T00:33:20.331Z,2.97
2023-04-08T00:34:20.315Z,2.93
2023-04-08T00:35:20.333Z,2.95
2023-04-08T00:36:20.331Z,2.93
2023-04-08T00:37:20.297Z,2.86
2023-04-08T00:38:20.280Z,2.89
2023-04-08T00:39:20.274Z,2.85
2023-04-08T00:40:20.269Z,3.01
2023-04-08T00:41:20.285Z,2.85
2023-04-08T00:42:20.252Z,2.83
2023-04-08T00:43:20.247Z,2.82
2023-04-08T00:44:20.240Z,2.85
2023-04-08T00:45:20.231Z,2.85
2023-04-08T00:46:20.300Z,2.83
2023-04-08T00:47:20.244Z,2.82
2023-04-08T00:48:20.205Z,2.82
2023-04-08T00:49:20.207Z,2.82
2023-04-08T00:50:20.199Z,2.87
2023-04-08T00:51:20.236Z,2.87
2023-04-08T00:52:20.187Z,2.82
2023-04-08T00:53:20.198Z,2.86
2023-04-08T00:54:20.166Z,2.83
2023-04-08T00:55:20.159Z,2.85
2023-04-08T00:56:20.177Z,2.83
2023-04-08T00:57:20.153Z,2.83
2023-04-08T00:58:20.141Z,2.83
2023-04-08T00:59:20.125Z,2.82
2023-04-08T01:00:20.123Z,2.90
2023-04-08T01:01:20.144Z,2.87
2023-04-08T01:02:20.208Z,2.87
2023-04-08T01:03:20.320Z,2.85
2023-04-08T01:04:20.170Z,2.89
2023-04-08T01:05:20.081Z,2.75
2023-04-08T01:06:20.066Z,2.86
2023-04-08T01:07:20.087Z,2.90
2023-04-08T01:08:20.062Z,2.92
2023-04-08T01:09:20.049Z,2.93
2023-04-08T01:10:20.048Z,2.92
2023-04-08T01:11:20.038Z,2.92
2023-04-08T01:12:20.060Z,2.93
2023-04-08T01:13:20.018Z,3.00
2023-04-08T01:14:20.034Z,3.04
2023-04-08T01:15:20.002Z,3.08
2023-04-08T01:16:20.045Z,3.05
2023-04-08T01:17:20.112Z,3.07
2023-04-08T01:18:19.981Z,3.05
2023-04-08T01:19:19.976Z,3.04
2023-04-08T01:20:19.965Z,3.00
2023-04-08T01:21:19.962Z,3.00
2023-04-08T01:22:19.992Z,3.08
2023-04-08T01:23:19.949Z,3.04
2023-04-08T01:24:19.944Z,3.05
2023-04-08T01:25:19.941Z,3.05
2023-04-08T01:26:19.920Z,3.05
2023-04-08T01:27:19.941Z,3.07
2023-04-08T01:28:19.925Z,3.07
2023-04-08T01:29:19.903Z,3.05
2023-04-08T01:30:19.920Z,3.14
2023-04-08T01:31:19.953Z,3.08
2023-04-08T01:32:19.917Z,3.18
2023-04-08T01:33:19.874Z,3.21
2023-04-08T01:34:19.877Z,3.05
2023-04-08T01:35:19.873Z,3.19
2023-04-08T01:36:19.847Z,3.26
2023-04-08T01:37:19.862Z,3.13
2023-04-08T01:38:19.830Z,3.21
2023-04-08T01:39:19.827Z,3.22
2023-04-08T01:40:19.826Z,3.22
2023-04-08T01:41:19.818Z,3.19
2023-04-08T01:42:19.828Z,3.08
2023-04-08T01:43:19.795Z,3.21
2023-04-08T01:44:19.787Z,3.19
2023-04-08T01:45:19.795Z,3.28
2023-04-08T01:46:19.790Z,3.21
2023-04-08T01:47:19.798Z,3.28
2023-04-08T01:48:19.763Z,3.29
2023-04-08T01:49:19.752Z,3.22
2023-04-08T01:50:19.760Z,3.31
2023-04-08T01:51:19.731Z,3.31
2023-04-08T01:52:19.761Z,3.37
2023-04-08T01:53:19.722Z,3.42
2023-04-08T01:54:19.711Z,3.41
2023-04-08T01:55:19.703Z,3.36
2023-04-08T01:56:19.701Z,3.36
2023-04-08T01:57:19.712Z,3.32
2023-04-08T01:58:19.693Z,3.41
2023-04-08T01:59:19.676Z,3.40
2023-04-08T02:00:19.668Z,3.45
2023-04-08T02:01:19.673Z,3.50
2023-04-08T02:02:19.735Z,3.45
2023-04-08T02:03:19.829Z,3.50
2023-04-08T02:04:19.740Z,3.50
2023-04-08T02:05:19.636Z,3.50
2023-04-08T02:06:19.628Z,3.44
2023-04-08T02:07:19.645Z,3.41
2023-04-08T02:08:19.612Z,3.48
2023-04-08T02:09:19.624Z,3.47
2023-04-08T02:10:19.596Z,3.53
2023-04-08T02:11:19.587Z,3.56
2023-04-08T02:12:19.583Z,3.53
2023-04-08T02:13:19.594Z,3.59
2023-04-08T02:14:19.588Z,3.62
2023-04-08T02:15:19.567Z,3.56
2023-04-08T02:16:19.594Z,3.60
2023-04-08T02:17:19.548Z,3.65
2023-04-08T02:18:19.564Z,3.59
2023-04-08T02:19:19.532Z,3.60
2023-04-08T02:20:19.522Z,3.65
2023-04-08T02:21:19.532Z,3.63
2023-04-08T02:22:19.512Z,3.70
2023-04-08T02:23:19.516Z,3.70
2023-04-08T02:24:19.491Z,3.70
2023-04-08T02:25:19.478Z,3.74
2023-04-08T02:26:19.470Z,3.70
2023-04-08T02:27:19.461Z,3.69
2023-04-08T02:28:19.482Z,3.66
2023-04-08T02:29:19.440Z,3.66
2023-04-08T02:30:19.456Z,3.63
2023-04-08T02:31:19.470Z,3.66
2023-04-08T02:32:19.425Z,3.73
2023-04-08T02:33:19.449Z,3.73
2023-04-08T02:34:19.408Z,3.68
2023-04-08T02:35:19.428Z,3.74
2023-04-08T02:36:19.388Z,3.77
2023-04-08T02:37:20.384Z,3.76
2023-04-08T02:38:19.421Z,3.80
2023-04-08T02:39:19.377Z,3.77
2023-04-08T02:40:19.372Z,3.83
2023-04-08T02:41:19.354Z,3.80
2023-04-08T02:42:19.354Z,3.63
2023-04-08T02:43:19.365Z,3.74
2023-04-08T02:44:19.322Z,3.83
2023-04-08T02:45:19.332Z,3.86
2023-04-08T02:46:19.384Z,3.80
2023-04-08T02:47:19.320Z,3.78
2023-04-08T02:48:19.327Z,3.83
2023-04-08T02:49:19.306Z,3.81
2023-04-08T02:50:19.294Z,3.83
2023-04-08T02:51:19.280Z,3.77
2023-04-08T02:52:19.267Z,3.87
2023-04-08T02:53:19.279Z,3.76
2023-04-08T02:54:19.259Z,3.95
2023-04-08T02:55:19.239Z,3.83
2023-04-08T02:56:19.238Z,3.81
2023-04-08T02:57:19.234Z,3.83
2023-04-08T02:58:19.243Z,3.88
2023-04-08T02:59:19.205Z,3.91
2023-04-08T03:00:19.206Z,3.98
2023-04-08T03:01:19.216Z,3.95
2023-04-08T03:02:19.259Z,3.98
2023-04-08T03:03:19.273Z,3.98
2023-04-08T03:04:19.173Z,4.04
2023-04-08T03:05:19.164Z,4.05
2023-04-08T03:06:19.160Z,4.04
2023-04-08T03:07:19.153Z,4.17
2023-04-08T03:08:19.172Z,4.06
2023-04-08T03:09:19.141Z,4.16
2023-04-08T03:10:19.131Z,4.19
2023-04-08T03:11:19.119Z,4.24
2023-04-08T03:12:19.118Z,4.17
2023-04-08T03:13:19.135Z,4.19
2023-04-08T03:14:19.107Z,4.30
2023-04-08T03:15:19.096Z,4.23
2023-04-08T03:16:19.122Z,4.20
2023-04-08T03:17:19.068Z,4.20
2023-04-08T03:18:19.080Z,4.28
2023-04-08T03:19:19.061Z,4.32
2023-04-08T03:20:19.044Z,4.32
2023-04-08T03:21:19.040Z,4.31
2023-04-08T03:22:19.033Z,4.35
2023-04-08T03:23:19.050Z,4.41
2023-04-08T03:24:19.037Z,4.44
2023-04-08T03:25:19.016Z,4.35
2023-04-08T03:26:19.008Z,4.24
2023-04-08T03:27:19.002Z,4.26
2023-04-08T03:28:19.015Z,4.22
2023-04-08T03:29:18.974Z,4.23
2023-04-08T03:30:18.970Z,4.20
2023-04-08T03:31:18.993Z,4.16
2023-04-08T03:32:18.952Z,4.28
2023-04-08T03:33:18.959Z,4.14
2023-04-08T03:34:18.934Z,4.19
2023-04-08T03:35:19.033Z,4.17
2023-04-08T03:36:18.930Z,4.17
2023-04-08T03:37:18.933Z,4.23
2023-04-08T03:38:18.942Z,4.20
2023-04-08T03:39:18.911Z,4.34
2023-04-08T03:40:18.892Z,4.30
2023-04-08T03:41:18.885Z,4.38
2023-04-08T03:42:18.874Z,4.31
2023-04-08T03:43:18.892Z,4.32
2023-04-08T03:44:18.856Z,4.42
2023-04-08T03:45:18.866Z,4.52
2023-04-08T03:46:18.891Z,4.58
2023-04-08T03:47:18.845Z,4.52
2023-04-08T03:48:18.845Z,4.50
2023-04-08T03:49:18.817Z,4.53
2023-04-08T03:50:18.810Z,4.63
2023-04-08T03:51:18.812Z,4.58
2023-04-08T03:52:18.794Z,4.49
2023-04-08T03:53:18.817Z,4.55
2023-04-08T03:54:18.781Z,4.53
2023-04-08T03:55:18.769Z,4.58
2023-04-08T03:56:18.764Z,4.48
2023-04-08T03:57:18.753Z,4.45
2023-04-08T03:58:18.779Z,4.45
2023-04-08T03:59:18.736Z,4.49
2023-04-08T04:00:18.729Z,4.52
2023-04-08T04:01:18.724Z,4.38
2023-04-08T04:02:18.783Z,4.41
2023-04-08T04:03:18.809Z,4.30
2023-04-08T04:04:19.003Z,4.40
2023-04-08T04:05:18.689Z,4.32
2023-04-08T04:06:18.682Z,4.37
2023-04-08T04:07:18.673Z,4.26
2023-04-08T04:08:18.684Z,4.37
2023-04-08T04:09:18.719Z,4.28
2023-04-08T04:10:18.647Z,4.38
2023-04-08T04:11:18.640Z,4.34
2023-04-08T04:12:18.633Z,4.37
2023-04-08T04:13:18.629Z,4.37
2023-04-08T04:14:18.641Z,4.45
2023-04-08T04:15:18.630Z,4.40
2023-04-08T04:16:18.709Z,4.30
2023-04-08T04:17:18.586Z,4.28
2023-04-08T04:18:19.665Z,4.20
2023-04-08T04:19:18.600Z,4.26
2023-04-08T04:20:18.568Z,4.23
2023-04-08T04:21:18.563Z,4.30
2023-04-08T04:22:18.562Z,4.31
2023-04-08T04:23:18.552Z,4.16
2023-04-08T04:24:18.564Z,4.17
2023-04-08T04:25:18.532Z,4.20
2023-04-08T04:26:18.530Z,4.23
2023-04-08T04:27:18.525Z,4.08
2023-04-08T04:28:18.500Z,4.12
2023-04-08T04:29:18.529Z,4.13
2023-04-08T04:30:18.501Z,4.13
2023-04-08T04:31:18.535Z,4.08
2023-04-08T04:32:18.475Z,4.10
2023-04-08T04:33:18.462Z,4.13
2023-04-08T04:34:18.491Z,3.99
2023-04-08T04:35:18.545Z,4.19
2023-04-08T04:36:18.449Z,4.20
2023-04-08T04:37:18.447Z,4.17
2023-04-08T04:38:18.433Z,4.10
2023-04-08T04:39:18.460Z,4.19
2023-04-08T04:40:18.408Z,4.19
2023-04-08T04:41:18.430Z,4.17
2023-04-08T04:42:18.401Z,4.23
2023-04-08T04:43:18.383Z,4.23
2023-04-08T04:44:18.404Z,4.20
2023-04-08T04:45:18.459Z,4.20
2023-04-08T04:46:18.392Z,4.35
2023-04-08T04:47:18.353Z,4.28
2023-04-08T04:48:18.349Z,4.45
2023-04-08T04:49:18.369Z,4.38
2023-04-08T04:50:18.326Z,4.49
2023-04-08T04:51:18.321Z,4.45
2023-04-08T04:52:18.315Z,4.53
2023-04-08T04:53:18.305Z,4.60
2023-04-08T04:54:18.321Z,4.48
2023-04-08T04:55:18.284Z,4.49
2023-04-08T04:56:18.280Z,4.48
2023-04-08T04:57:18.270Z,4.59
2023-04-08T04:58:18.264Z,4.62
2023-04-08T04:59:18.286Z,4.60
2023-04-08T05:00:18.244Z,4.60
2023-04-08T05:01:18.275Z,4.59
2023-04-08T05:02:18.485Z,4.68
2023-04-08T05:03:18.280Z,4.80
2023-04-08T05:04:18.245Z,4.74
2023-04-08T05:05:18.236Z,4.78
2023-04-08T05:06:18.213Z,4.82
2023-04-08T05:07:18.190Z,4.89
2023-04-08T05:08:18.193Z,4.86
2023-04-08T05:09:18.205Z,4.80
2023-04-08T05:10:18.175Z,4.87
2023-04-08T05:11:18.164Z,4.78
2023-04-08T05:12:18.157Z,4.70
2023-04-08T05:13:18.157Z,4.90
2023-04-08T05:14:18.164Z,4.82
2023-04-08T05:15:18.134Z,4.92
2023-04-08T05:16:18.301Z,4.90
2023-04-08T05:17:18.116Z,4.92
2023-04-08T05:18:18.114Z,4.90
2023-04-08T05:19:18.128Z,4.96
2023-04-08T05:20:18.102Z,5.08
2023-04-08T05:21:18.098Z,5.10
2023-04-08T05:22:18.083Z,5.11
2023-04-08T05:23:18.076Z,5.08
2023-04-08T05:24:18.093Z,5.14
2023-04-08T05:25:18.060Z,5.18
2023-04-08T05:26:20.251Z,5.17
2023-04-08T05:27:18.054Z,5.14
2023-04-08T05:28:18.035Z,5.23
2023-04-08T05:29:18.055Z,5.26
2023-04-08T05:30:18.018Z,5.28
2023-04-08T05:31:18.044Z,5.30
2023-04-08T05:32:18.005Z,5.32
2023-04-08T05:33:18.001Z,5.29
2023-04-08T05:34:18.014Z,5.32
2023-04-08T05:35:18.006Z,5.32
2023-04-08T05:36:17.984Z,5.43
2023-04-08T05:37:17.966Z,5.39
2023-04-08T05:38:17.970Z,5.33
2023-04-08T05:39:17.976Z,5.44
2023-04-08T05:40:17.952Z,5.39
2023-04-08T05:41:17.935Z,5.39
2023-04-08T05:42:17.930Z,5.46
2023-04-08T05:43:17.920Z,5.46
2023-04-08T05:44:17.946Z,5.41
2023-04-08T05:45:17.911Z,5.54
2023-04-08T05:46:17.927Z,5.51
2023-04-08T05:47:17.896Z,5.47
2023-04-08T05:48:17.885Z,5.61
2023-04-08T05:49:17.908Z,5.57
2023-04-08T05:50:17.875Z,5.62
2023-04-08T05:51:17.861Z,5.59
2023-04-08T05:52:17.866Z,5.71
2023-04-08T05:53:17.860Z,5.64
2023-04-08T05:54:17.866Z,5.66
2023-04-08T05:55:17.838Z,5.75
2023-04-08T05:56:17.821Z,5.79
2023-04-08T05:57:17.815Z,5.84
2023-04-08T05:58:17.799Z,5.89
2023-04-08T05:59:17.822Z,5.86
2023-04-08T06:00:17.784Z,5.82
2023-04-08T06:01:17.778Z,5.90
2023-04-08T06:02:17.793Z,5.94
2023-04-08T06:03:20.458Z,5.84
2023-04-08T06:04:18.882Z,5.97
2023-04-08T06:05:17.747Z,6.01
2023-04-08T06:06:17.740Z,6.04
2023-04-08T06:07:17.729Z,5.99
2023-04-08T06:08:17.725Z,6.02
2023-04-08T06:09:17.743Z,6.11
2023-04-08T06:10:17.714Z,5.98
2023-04-08T06:11:17.697Z,6.08
2023-04-08T06:12:17.683Z,6.09
2023-04-08T06:13:17.676Z,6.26
2023-04-08T06:14:17.693Z,6.28
2023-04-08T06:15:17.673Z,6.33
2023-04-08T06:16:19.535Z,6.44
2023-04-08T06:17:17.676Z,6.45
2023-04-08T06:18:17.657Z,6.57
2023-04-08T06:19:17.662Z,6.60
2023-04-08T06:20:17.626Z,6.57
2023-04-08T06:21:17.617Z,6.74
2023-04-08T06:22:17.607Z,6.72
2023-04-08T06:23:17.598Z,6.66
2023-04-08T06:24:17.614Z,6.56
2023-04-08T06:25:17.585Z,6.81
2023-04-08T06:26:17.580Z,6.79
2023-04-08T06:27:17.572Z,6.75
2023-04-08T06:28:17.564Z,6.74
2023-04-08T06:29:17.590Z,6.81
2023-04-08T06:30:17.556Z,6.70
2023-04-08T06:31:17.571Z,6.67
2023-04-08T06:32:17.544Z,6.78
2023-04-08T06:33:17.547Z,6.87
2023-04-08T06:34:17.557Z,6.84
2023-04-08T06:35:17.566Z,6.79
2023-04-08T06:36:17.508Z,6.77
2023-04-08T06:37:17.503Z,6.79
2023-04-08T06:38:17.493Z,6.77
2023-04-08T06:39:17.481Z,6.82
2023-04-08T06:40:17.499Z,6.81
2023-04-08T06:41:17.468Z,6.81
2023-04-08T06:42:17.455Z,6.82
2023-04-08T06:43:17.712Z,6.72
2023-04-08T06:44:17.449Z,6.87
2023-04-08T06:45:17.455Z,6.79
2023-04-08T06:46:17.453Z,6.81
2023-04-08T06:47:17.421Z,6.82
2023-04-08T06:48:17.421Z,6.82
2023-04-08T06:49:17.408Z,6.88
2023-04-08T06:50:17.429Z,6.97
2023-04-08T06:51:17.389Z,6.97
2023-04-08T06:52:17.382Z,6.84
2023-04-08T06:53:17.370Z,6.79
2023-04-08T06:54:17.366Z,6.69
2023-04-08T06:55:17.381Z,6.54
2023-04-08T06:56:17.363Z,6.75
2023-04-08T06:57:17.342Z,6.88
2023-04-08T06:58:17.331Z,6.95
2023-04-08T06:59:17.322Z,7.10
2023-04-08T07:00:17.345Z,7.05
2023-04-08T07:01:17.344Z,7.14
2023-04-08T07:02:17.334Z,7.31
2023-04-08T07:03:17.337Z,7.35
2023-04-08T07:04:17.330Z,7.40
2023-04-08T07:05:17.316Z,7.31
2023-04-08T07:06:17.272Z,7.39
2023-04-08T07:07:17.261Z,7.39
2023-04-08T07:08:17.250Z,7.51
2023-04-08T07:09:17.247Z,7.57
2023-04-08T07:10:17.359Z,7.60
2023-04-08T07:11:17.243Z,7.51
2023-04-08T07:12:17.221Z,7.25
2023-04-08T07:13:17.236Z,7.14
2023-04-08T07:14:17.212Z,7.05
2023-04-08T07:15:17.225Z,6.99
2023-04-08T07:16:17.215Z,6.99
2023-04-08T07:17:17.185Z,6.92
2023-04-08T07:18:17.176Z,7.00
2023-04-08T07:19:17.170Z,6.95
2023-04-08T07:20:17.195Z,7.03
2023-04-08T07:21:17.156Z,7.00
2023-04-08T07:22:18.036Z,6.85
2023-04-08T07:23:17.141Z,6.81
2023-04-08T07:24:17.128Z,6.81
2023-04-08T07:25:17.150Z,6.72
2023-04-08T07:26:17.121Z,6.57
2023-04-08T07:27:17.103Z,6.63
2023-04-08T07:28:17.095Z,6.66
2023-04-08T07:29:17.085Z,6.75
2023-04-08T07:30:17.119Z,6.63
2023-04-08T07:31:17.094Z,6.66
2023-04-08T07:32:17.067Z,6.54
2023-04-08T07:33:17.058Z,6.60
2023-04-08T07:34:17.057Z,6.64
2023-04-08T07:35:17.066Z,6.56
2023-04-08T07:36:17.034Z,6.62
2023-04-08T07:37:17.027Z,6.57
2023-04-08T07:38:17.017Z,6.66
2023-04-08T07:39:17.022Z,6.57
2023-04-08T07:40:17.033Z,6.67
2023-04-08T07:41:17.013Z,6.59
2023-04-08T07:42:16.988Z,6.64
2023-04-08T07:43:17.001Z,6.54
2023-04-08T07:44:16.983Z,6.72
2023-04-08T07:45:16.990Z,6.57
2023-04-08T07:46:16.978Z,6.74
2023-04-08T07:47:16.947Z,6.72
2023-04-08T07:48:16.938Z,6.77
2023-04-08T07:49:16.933Z,6.96
2023-04-08T07:50:16.955Z,6.93
2023-04-08T07:51:16.922Z,7.00
2023-04-08T07:52:16.914Z,6.96
2023-04-08T07:53:16.904Z,6.92
2023-04-08T07:54:16.895Z,6.85
2023-04-08T07:55:16.912Z,6.78
2023-04-08T07:56:16.877Z,6.72
2023-04-08T07:57:16.891Z,6.75
2023-04-08T07:58:16.870Z,6.82
2023-04-08T07:59:16.856Z,6.79
2023-04-08T08:00:16.884Z,6.84
2023-04-08T08:01:16.834Z,6.84
2023-04-08T08:02:16.953Z,6.85
2023-04-08T08:03:16.868Z,6.87
2023-04-08T08:04:16.961Z,6.79
2023-04-08T08:05:16.925Z,6.93
2023-04-08T08:06:16.803Z,6.89
2023-04-08T08:07:16.798Z,6.89
2023-04-08T08:08:16.780Z,7.00
2023-04-08T08:09:16.777Z,6.93
2023-04-08T08:10:16.796Z,6.95
2023-04-08T08:11:16.790Z,6.97
2023-04-08T08:12:16.755Z,6.87
2023-04-08T08:13:16.744Z,6.99
2023-04-08T08:14:16.742Z,6.96
2023-04-08T08:15:16.754Z,7.02
2023-04-08T08:16:16.761Z,7.17
2023-04-08T08:17:16.712Z,7.20
2023-04-08T08:18:16.710Z,7.14
2023-04-08T08:19:16.696Z,7.18
2023-04-08T08:20:16.738Z,7.07
2023-04-08T08:21:16.733Z,7.20
2023-04-08T08:22:16.674Z,7.11
2023-04-08T08:23:16.666Z,7.18
2023-04-08T08:24:16.658Z,7.17
2023-04-08T08:25:16.680Z,7.18
2023-04-08T08:26:16.646Z,7.15
2023-04-08T08:27:16.639Z,7.15
2023-04-08T08:28:16.624Z,7.17
2023-04-08T08:29:16.622Z,7.20
2023-04-08T08:30:16.633Z,7.11
2023-04-08T08:31:16.631Z,7.11
2023-04-08T08:32:16.598Z,7.17
2023-04-08T08:33:16.590Z,7.21
2023-04-08T08:34:16.580Z,7.17
2023-04-08T08:35:16.606Z,7.11
2023-04-08T08:36:16.620Z,7.14
2023-04-08T08:37:16.588Z,7.10
2023-04-08T08:38:16.568Z,7.17
2023-04-08T08:39:16.555Z,7.06
2023-04-08T08:40:16.563Z,7.02
2023-04-08T08:41:16.530Z,6.97
2023-04-08T08:42:16.525Z,6.95
2023-04-08T08:43:16.521Z,6.96
2023-04-08T08:44:16.511Z,7.07
2023-04-08T08:45:16.532Z,7.13
2023-04-08T08:46:16.513Z,7.03
2023-04-08T08:47:16.494Z,7.03
2023-04-08T08:48:16.484Z,7.02
2023-04-08T08:49:16.470Z,7.06
2023-04-08T08:50:16.500Z,7.00
2023-04-08T08:51:16.459Z,6.99
2023-04-08T08:52:16.453Z,7.06
2023-04-08T08:53:16.464Z,7.07
2023-04-08T08:54:16.431Z,7.10
2023-04-08T08:55:32.490Z,7.13
2023-04-08T08:56:19.114Z,7.32
2023-04-08T08:57:17.408Z,7.20
2023-04-08T08:58:16.401Z,7.23
2023-04-08T08:59:16.390Z,7.23
2023-04-08T09:00:16.402Z,7.40
2023-04-08T09:01:16.374Z,7.32
2023-04-08T09:02:16.522Z,7.48
2023-04-08T09:03:16.573Z,7.53
2023-04-08T09:04:16.610Z,7.56
2023-04-08T09:05:16.517Z,7.67
2023-04-08T09:06:16.325Z,7.85
2023-04-08T09:07:17.327Z,7.83
2023-04-08T09:08:16.315Z,7.90
2023-04-08T09:09:16.316Z,8.00
2023-04-08T09:10:16.306Z,7.90
2023-04-08T09:11:16.331Z,7.85
2023-04-08T09:12:17.968Z,8.00
2023-04-08T09:13:16.270Z,7.85
2023-04-08T09:14:17.278Z,7.83
2023-04-08T09:15:16.264Z,8.09
2023-04-08T09:16:16.295Z,8.01
2023-04-08T09:17:16.246Z,7.79
2023-04-08T09:18:17.779Z,7.87
2023-04-08T09:19:16.234Z,7.83
2023-04-08T09:20:16.226Z,7.94
2023-04-08T09:21:16.244Z,7.94
2023-04-08T09:22:16.218Z,7.94
2023-04-08T09:23:16.199Z,7.97
2023-04-08T09:24:17.795Z,7.87
2023-04-08T09:25:16.186Z,7.90
2023-04-08T09:26:16.236Z,7.88
2023-04-08T09:27:16.170Z,8.09
2023-04-08T09:28:16.159Z,8.18
2023-04-08T09:29:25.981Z,8.15
2023-04-08T09:30:18.143Z,8.13
2023-04-08T09:31:16.188Z,8.34
2023-04-08T09:32:16.124Z,8.34
2023-04-08T09:33:16.118Z,8.37
2023-04-08T09:34:16.114Z,8.58
2023-04-08T09:35:16.108Z,8.53
2023-04-08T09:36:16.150Z,8.55
2023-04-08T09:37:16.090Z,8.69
2023-04-08T09:38:16.085Z,8.61
2023-04-08T09:39:16.073Z,8.61
2023-04-08T09:40:16.069Z,8.70
2023-04-08T09:41:16.096Z,8.60
2023-04-08T09:42:16.058Z,8.42
2023-04-08T09:43:16.033Z,8.36
2023-04-08T09:44:16.028Z,8.31
2023-04-08T09:45:16.037Z,8.19
2023-04-08T09:46:16.185Z,8.20
2023-04-08T09:47:16.012Z,8.24
2023-04-08T09:48:16.602Z,8.24
2023-04-08T09:49:16.991Z,8.18
2023-04-08T09:50:15.988Z,8.09
2023-04-08T09:51:16.006Z,8.05
2023-04-08T09:52:15.989Z,8.01
2023-04-08T09:53:15.959Z,7.95
2023-04-08T09:54:15.950Z,8.08
2023-04-08T09:55:15.947Z,8.13
2023-04-08T09:56:15.961Z,8.19
2023-04-08T09:57:15.927Z,8.09
2023-04-08T09:58:15.918Z,8.09
2023-04-08T09:59:15.913Z,8.23
2023-04-08T10:00:15.902Z,8.09
2023-04-08T10:01:15.964Z,8.13
2023-04-08T10:02:15.938Z,8.24
2023-04-08T10:03:16.073Z,8.27
2023-04-08T10:04:15.901Z,8.27
2023-04-08T10:05:15.865Z,8.28
2023-04-08T10:06:15.884Z,8.33
2023-04-08T10:07:15.840Z,8.33
2023-04-08T10:08:16.845Z,8.38
2023-04-08T10:09:15.833Z,8.45
2023-04-08T10:10:15.832Z,8.48
2023-04-08T10:11:15.818Z,8.51
2023-04-08T10:12:15.836Z,8.38
2023-04-08T10:13:15.807Z,8.42
2023-04-08T10:14:15.793Z,8.28
2023-04-08T10:15:15.799Z,8.26
2023-04-08T10:16:15.799Z,8.24
2023-04-08T10:17:15.793Z,8.26
2023-04-08T10:18:15.766Z,8.19
2023-04-08T10:19:15.755Z,8.15
2023-04-08T10:20:15.746Z,8.15
2023-04-08T10:21:15.751Z,8.26
2023-04-08T10:22:15.766Z,8.24
2023-04-08T10:23:15.731Z,8.24
2023-04-08T10:24:15.728Z,8.27
2023-04-08T10:25:15.732Z,8.33
2023-04-08T10:26:15.705Z,8.33
2023-04-08T10:27:15.716Z,8.31
2023-04-08T10:28:15.690Z,8.28
2023-04-08T10:29:15.691Z,8.31
2023-04-08T10:30:15.675Z,8.19
2023-04-08T10:31:15.666Z,8.24
2023-04-08T10:32:15.682Z,8.19
2023-04-08T10:33:15.648Z,8.13
2023-04-08T10:34:15.647Z,8.12
2023-04-08T10:35:15.639Z,8.13
2023-04-08T10:36:15.673Z,8.13
2023-04-08T10:37:15.646Z,8.26
2023-04-08T10:38:15.610Z,8.10
2023-04-08T10:39:15.603Z,8.20
2023-04-08T10:40:15.602Z,8.24
2023-04-08T10:41:15.591Z,8.28
2023-04-08T10:42:15.601Z,8.19
2023-04-08T10:43:15.579Z,8.20
2023-04-08T10:44:15.568Z,8.18
2023-04-08T10:45:15.558Z,8.18
2023-04-08T10:46:15.596Z,8.24
2023-04-08T10:47:15.579Z,8.15
2023-04-08T10:48:15.530Z,8.28
2023-04-08T10:49:15.530Z,8.13
2023-04-08T10:50:15.600Z,8.24
2023-04-08T10:51:15.522Z,8.20
2023-04-08T10:52:15.541Z,8.15
2023-04-08T10:53:15.503Z,8.16
2023-04-08T10:54:15.495Z,8.13
2023-04-08T10:55:15.494Z,8.20
2023-04-08T10:56:15.552Z,8.10
2023-04-08T10:57:15.507Z,8.08
2023-04-08T10:58:15.468Z,8.12
2023-04-08T10:59:15.456Z,8.18
2023-04-08T11:00:15.469Z,8.10
2023-04-08T11:01:15.460Z,8.03
2023-04-08T11:02:15.602Z,8.05
2023-04-08T11:03:15.917Z,7.94
2023-04-08T11:04:16.587Z,7.95
2023-04-08T11:05:15.411Z,7.91
2023-04-08T11:06:15.411Z,7.95
2023-04-08T11:07:15.428Z,8.01
2023-04-08T11:08:15.389Z,8.08
2023-04-08T11:09:15.387Z,8.20
2023-04-08T11:10:15.463Z,8.30
2023-04-08T11:11:15.429Z,8.46
2023-04-08T11:12:15.382Z,8.52
2023-04-08T11:13:15.353Z,8.51
2023-04-08T11:14:15.345Z,8.45
2023-04-08T11:15:15.330Z,8.38
2023-04-08T11:16:18.253Z,8.42
2023-04-08T11:17:16.348Z,8.51
2023-04-08T11:18:15.313Z,8.53
2023-04-08T11:19:15.304Z,8.64
2023-04-08T11:20:15.305Z,8.61
2023-04-08T11:21:15.293Z,8.70
2023-04-08T11:22:15.308Z,8.67
2023-04-08T11:23:15.285Z,8.63
2023-04-08T11:24:15.268Z,8.74
2023-04-08T11:25:15.276Z,8.84
2023-04-08T11:26:15.255Z,8.99
2023-04-08T11:27:15.280Z,8.97
2023-04-08T11:28:15.244Z,9.22
2023-04-08T11:29:15.276Z,9.32
2023-04-08T11:30:15.304Z,9.36
2023-04-08T11:31:15.251Z,9.47
2023-04-08T11:32:15.238Z,9.47
2023-04-08T11:33:15.195Z,9.41
2023-04-08T11:34:15.194Z,9.36
2023-04-08T11:35:15.185Z,9.59
2023-04-08T11:36:15.235Z,9.56
2023-04-08T11:37:15.169Z,9.62
2023-04-08T11:38:15.180Z,9.73
2023-04-08T11:39:15.160Z,9.65
2023-04-08T11:40:15.145Z,9.43
2023-04-08T11:41:15.132Z,9.32
2023-04-08T11:42:15.136Z,9.39
2023-04-08T11:43:15.141Z,9.39
2023-04-08T11:44:15.107Z,9.46
2023-04-08T11:45:15.109Z,9.39
2023-04-08T11:46:15.115Z,9.43
2023-04-08T11:47:15.082Z,9.51
2023-04-08T11:48:15.092Z,9.43
2023-04-08T11:49:15.064Z,9.46
2023-04-08T11:50:15.056Z,9.55
2023-04-08T11:51:15.053Z,9.76
2023-04-08T11:52:15.043Z,9.77
2023-04-08T11:53:15.068Z,9.72
2023-04-08T11:54:15.032Z,9.69
2023-04-08T11:55:15.031Z,9.48
2023-04-08T11:56:15.020Z,9.43
2023-04-08T11:57:15.017Z,9.44
2023-04-08T11:58:15.032Z,9.34
2023-04-08T11:59:14.999Z,9.34
2023-04-08T12:00:14.994Z,9.29
2023-04-08T12:01:14.978Z,9.36
2023-04-08T12:02:15.082Z,9.47
2023-04-08T12:03:15.058Z,9.39
2023-04-08T12:04:15.280Z,9.37
2023-04-08T12:05:14.977Z,9.41
2023-04-08T12:06:14.954Z,9.46
2023-04-08T12:07:14.941Z,9.58
2023-04-08T12:08:14.951Z,9.72
2023-04-08T12:09:14.922Z,9.80
2023-04-08T12:10:14.913Z,9.91
2023-04-08T12:11:20.046Z,10.01
2023-04-08T12:12:16.898Z,9.99
2023-04-08T12:13:14.914Z,10.26
2023-04-08T12:14:14.879Z,10.30
2023-04-08T12:15:14.873Z,10.28
2023-04-08T12:16:14.893Z,10.28
2023-04-08T12:17:14.852Z,10.19
2023-04-08T12:18:14.866Z,10.10
2023-04-08T12:19:14.855Z,10.10
2023-04-08T12:20:14.841Z,10.12
2023-04-08T12:21:14.825Z,10.19
2023-04-08T12:22:14.805Z,10.28
2023-04-08T12:23:14.847Z,10.49
2023-04-08T12:24:14.805Z,10.68
2023-04-08T12:25:14.793Z,10.76
2023-04-08T12:26:14.830Z,10.84
2023-04-08T12:27:14.782Z,10.90
2023-04-08T12:28:14.798Z,10.92
2023-04-08T12:29:14.758Z,10.84
2023-04-08T12:30:15.929Z,10.72
2023-04-08T12:31:14.767Z,10.67
2023-04-08T12:32:14.736Z,10.78
2023-04-08T12:33:14.757Z,10.87
2023-04-08T12:34:14.730Z,10.96
2023-04-08T12:35:14.717Z,11.15
2023-04-08T12:36:14.763Z,11.14
2023-04-08T12:37:14.721Z,11.37
2023-04-08T12:38:14.724Z,11.52
2023-04-08T12:39:14.692Z,11.48
2023-04-08T12:40:14.673Z,11.51
2023-04-08T12:41:14.675Z,11.68
2023-04-08T12:42:14.672Z,11.65
2023-04-08T12:43:14.688Z,11.59
2023-04-08T12:44:14.652Z,11.59
2023-04-08T12:45:14.646Z,11.47
2023-04-08T12:46:14.644Z,11.14
2023-04-08T12:47:14.687Z,11.00
2023-04-08T12:48:14.651Z,10.93
2023-04-08T12:49:14.609Z,11.02
2023-04-08T12:50:14.600Z,11.04
2023-04-08T12:51:14.596Z,11.15
2023-04-08T12:52:14.591Z,10.90
2023-04-08T12:53:14.610Z,10.97
2023-04-08T12:54:14.576Z,10.84
2023-04-08T12:55:14.568Z,10.76
2023-04-08T12:56:14.554Z,10.76
2023-04-08T12:57:14.547Z,10.79
2023-04-08T12:58:14.536Z,10.78
2023-04-08T12:59:14.938Z,10.64
2023-04-08T13:00:14.526Z,10.74
2023-04-08T13:01:14.563Z,10.57
2023-04-08T13:02:14.554Z,10.53
2023-04-08T13:03:14.549Z,10.46
2023-04-08T13:04:14.641Z,10.61
2023-04-08T13:05:14.484Z,10.60
2023-04-08T13:06:14.475Z,10.51
2023-04-08T13:07:14.471Z,10.42
2023-04-08T13:08:14.465Z,10.44
2023-04-08T13:09:14.478Z,10.49
2023-04-08T13:10:14.459Z,10.54
2023-04-08T13:11:14.433Z,10.59
2023-04-08T13:12:14.436Z,10.59
2023-04-08T13:13:14.443Z,10.59
2023-04-08T13:14:14.441Z,10.63
2023-04-08T13:15:14.408Z,10.71
2023-04-08T13:16:14.427Z,10.48